Tuotuohe, China
Current Conditions -  °F | °C
As of 3:50 AM on Saturday 20 Dec 2014 (Local Time) from VNKT Reporting Station
Few Clouds Few Clouds  
Wind Chill: 39°   Ceiling: Unl
Heat Index: 39°   Visibility: 4mi
Dew Point: 37°   Wind: 0mph
Humidity: 93%   Direction: NA
Pressure: 30.21"   Gusts: NA
Location:  34.22°N, 92.43°E
Report Text: VNKT 191950Z 00000KT 6000 FEW020 04/03 Q1023 NOSIG
Loading
Personal Weather Stations






























Interactive Weather Map New forecast layout! Learn more

10-Day Weather Forecast

Advertisements
Track Severe Weather on mobile